createdAt,value
2023-03-11T00:00:39.103Z,4.15
2023-03-11T00:03:10.248Z,3.55
2023-03-11T00:05:41.631Z,3.28
2023-03-11T00:08:16.489Z,2.80
2023-03-11T00:10:46.551Z,3.53
2023-03-11T00:13:15.853Z,3.60
2023-03-11T00:15:47.878Z,3.92
2023-03-11T00:18:16.228Z,3.53
2023-03-11T00:20:45.979Z,3.67
2023-03-11T00:23:14.647Z,3.10
2023-03-11T00:25:44.532Z,3.30
2023-03-11T00:28:13.105Z,3.47
2023-03-11T00:30:43.922Z,3.20
2023-03-11T00:33:14.554Z,3.05
2023-03-11T00:35:43.643Z,2.85
2023-03-11T00:38:18.415Z,3.03
2023-03-11T00:40:47.546Z,3.13
2023-03-11T00:43:15.977Z,3.33
2023-03-11T00:45:43.273Z,5.07
2023-03-11T00:48:11.544Z,4.07
2023-03-11T00:50:39.761Z,3.20
2023-03-11T00:53:07.081Z,3.15
2023-03-11T00:55:35.363Z,3.10
2023-03-11T00:58:07.075Z,3.03
2023-03-11T01:00:40.568Z,3.15
2023-03-11T01:03:08.713Z,3.85
2023-03-11T01:05:36.162Z,2.63
2023-03-11T01:08:03.884Z,2.35
2023-03-11T01:10:32.719Z,3.22
2023-03-11T01:13:00.813Z,3.15
2023-03-11T01:15:36.155Z,2.78
2023-03-11T01:18:05.150Z,2.13
2023-03-11T01:20:35.672Z,3.10
2023-03-11T01:23:03.606Z,2.60
2023-03-11T01:25:30.940Z,3.15
2023-03-11T01:27:59.305Z,2.30
2023-03-11T01:30:28.449Z,3.22
2023-03-11T01:32:57.728Z,3.92
2023-03-11T01:35:27.979Z,3.33
2023-03-11T01:37:55.807Z,2.45
2023-03-11T01:40:35.348Z,3.67
2023-03-11T01:43:38.210Z,2.85
2023-03-11T01:46:12.859Z,2.63
2023-03-11T01:48:45.277Z,2.95
2023-03-11T01:51:12.924Z,3.17
2023-03-11T01:53:40.382Z,3.28
2023-03-11T01:56:08.107Z,2.83
2023-03-11T01:58:39.518Z,2.45
2023-03-11T02:01:07.212Z,2.83
2023-03-11T02:03:39.200Z,3.63
2023-03-11T02:06:13.538Z,2.55
2023-03-11T02:08:43.154Z,2.72
2023-03-11T02:11:26.799Z,2.38
2023-03-11T02:14:02.210Z,2.08
2023-03-11T02:16:29.600Z,2.45
2023-03-11T02:19:04.048Z,2.63
2023-03-11T02:21:33.742Z,2.53
2023-03-11T02:24:45.874Z,3.13
2023-03-11T02:27:16.529Z,2.53
2023-03-11T02:29:49.193Z,2.00
2023-03-11T02:32:18.884Z,2.53
2023-03-11T02:34:47.019Z,3.20
2023-03-11T02:37:17.270Z,2.80
2023-03-11T02:39:54.568Z,2.10
2023-03-11T02:42:32.728Z,2.40
2023-03-11T02:45:11.851Z,2.40
2023-03-11T02:47:40.592Z,2.85
2023-03-11T02:50:15.252Z,2.40
2023-03-11T02:52:43.001Z,2.30
2023-03-11T02:55:11.671Z,2.15
2023-03-11T02:57:40.221Z,2.20
2023-03-11T03:00:13.569Z,2.30
2023-03-11T03:02:44.936Z,2.10
2023-03-11T03:05:13.101Z,4.32
2023-03-11T03:07:40.407Z,3.50
2023-03-11T03:10:08.789Z,2.38
2023-03-11T03:12:36.345Z,3.30
2023-03-11T03:15:03.921Z,2.60
2023-03-11T03:17:31.185Z,2.40
2023-03-11T03:19:58.923Z,2.38
2023-03-11T03:22:27.241Z,2.17
2023-03-11T03:24:54.632Z,2.43
2023-03-11T03:27:22.020Z,2.50
2023-03-11T03:29:49.347Z,1.25
2023-03-11T03:32:16.965Z,2.25
2023-03-11T03:34:44.248Z,2.80
2023-03-11T03:37:11.523Z,1.60
2023-03-11T03:39:38.983Z,2.42
2023-03-11T03:42:07.153Z,2.08
2023-03-11T03:44:39.664Z,1.77
2023-03-11T03:47:06.938Z,1.75
2023-03-11T03:49:34.245Z,2.75
2023-03-11T03:52:01.498Z,1.70
2023-03-11T03:54:31.793Z,1.60
2023-03-11T03:56:59.116Z,1.77
2023-03-11T03:59:26.504Z,2.25
2023-03-11T04:01:57.605Z,2.97
2023-03-11T04:04:26.435Z,2.50
2023-03-11T04:06:53.690Z,2.42
2023-03-11T04:09:21.352Z,2.13
2023-03-11T04:11:48.629Z,4.30
2023-03-11T04:14:17.367Z,8.65
2023-03-11T04:16:51.946Z,6.65
2023-03-11T04:19:19.385Z,4.20
2023-03-11T04:21:46.882Z,3.08
2023-03-11T04:24:14.092Z,3.38
2023-03-11T04:26:41.371Z,3.00
2023-03-11T04:29:13.689Z,2.75
2023-03-11T04:31:44.994Z,3.35
2023-03-11T04:34:13.339Z,3.78
2023-03-11T04:36:41.413Z,4.22
2023-03-11T04:39:10.099Z,5.78
2023-03-11T04:41:41.942Z,4.43
2023-03-11T04:44:11.715Z,5.22
2023-03-11T04:46:39.166Z,3.83
2023-03-11T04:51:37.292Z,5.78
2023-03-11T04:54:05.304Z,4.28
2023-03-11T04:56:32.584Z,3.80
2023-03-11T04:59:00.813Z,4.22
2023-03-11T05:01:30.868Z,2.70
2023-03-11T05:04:02.230Z,4.65
2023-03-11T05:06:29.555Z,8.18
2023-03-11T05:08:56.830Z,3.60
2023-03-11T05:11:24.788Z,3.50
2023-03-11T05:13:52.262Z,3.38
2023-03-11T05:16:20.457Z,3.75
2023-03-11T05:18:47.863Z,4.40
2023-03-11T05:21:16.261Z,5.03
2023-03-11T05:23:44.842Z,4.70
2023-03-11T05:26:13.411Z,7.53
2023-03-11T05:28:43.176Z,6.15
2023-03-11T05:31:10.789Z,5.07
2023-03-11T05:33:39.390Z,4.28
2023-03-11T05:36:10.459Z,3.40
2023-03-11T05:38:41.607Z,3.03
2023-03-11T05:41:09.478Z,3.70
2023-03-11T05:43:37.929Z,3.55
2023-03-11T05:46:05.600Z,7.40
2023-03-11T05:48:33.076Z,13.45
2023-03-11T05:51:00.852Z,17.80
2023-03-11T05:53:28.206Z,16.73
2023-03-11T05:55:57.538Z,22.23
2023-03-11T05:58:28.340Z,9.20
2023-03-11T06:00:55.844Z,6.53
2023-03-11T06:03:23.300Z,4.82
2023-03-11T06:05:52.474Z,4.90
2023-03-11T06:08:23.848Z,4.28
2023-03-11T06:10:51.094Z,4.85
2023-03-11T06:13:20.256Z,5.07
2023-03-11T06:15:50.804Z,5.65
2023-03-11T06:18:19.296Z,6.47
2023-03-11T06:20:47.053Z,7.10
2023-03-11T06:23:14.381Z,9.60
2023-03-11T06:25:41.805Z,9.50
2023-03-11T06:28:09.693Z,11.77
2023-03-11T06:30:37.124Z,11.70
2023-03-11T06:33:13.783Z,9.50
2023-03-11T06:35:41.441Z,9.98
2023-03-11T06:38:09.401Z,13.43
2023-03-11T06:40:38.865Z,11.32
2023-03-11T06:43:06.126Z,12.98
2023-03-11T06:45:37.653Z,12.82
2023-03-11T06:48:05.265Z,13.95
2023-03-11T06:50:33.523Z,14.93
2023-03-11T06:53:05.970Z,13.75
2023-03-11T06:55:34.756Z,15.50
2023-03-11T06:58:03.827Z,14.48
2023-03-11T07:00:32.461Z,9.18
2023-03-11T07:03:00.709Z,8.63
2023-03-11T07:05:27.969Z,9.27
2023-03-11T07:08:00.696Z,6.90
2023-03-11T07:10:28.197Z,3.40
2023-03-11T07:12:55.348Z,2.30
2023-03-11T07:15:24.852Z,3.05
2023-03-11T07:17:52.414Z,2.35
2023-03-11T07:20:20.301Z,1.85
2023-03-11T07:22:47.670Z,1.45
2023-03-11T07:25:15.024Z,1.35
2023-03-11T07:27:42.231Z,1.00
2023-03-11T07:30:10.599Z,1.38
2023-03-11T07:32:38.701Z,1.33
2023-03-11T07:35:07.129Z,1.80
2023-03-11T07:37:34.360Z,1.50
2023-03-11T07:40:01.661Z,0.80
2023-03-11T07:42:28.828Z,1.50
2023-03-11T07:44:56.009Z,1.42
2023-03-11T07:47:24.128Z,1.40
2023-03-11T07:49:51.354Z,1.23
2023-03-11T07:52:19.473Z,1.33
2023-03-11T07:54:46.835Z,0.93
2023-03-11T07:57:16.563Z,1.23
2023-03-11T07:59:43.893Z,1.05
2023-03-11T08:02:11.293Z,0.95
2023-03-11T08:04:38.823Z,0.60
2023-03-11T08:07:06.076Z,0.93
2023-03-11T08:09:34.976Z,2.83
2023-03-11T08:12:02.195Z,0.77
2023-03-11T08:14:29.453Z,1.10
2023-03-11T08:16:56.585Z,0.47
2023-03-11T08:19:23.791Z,0.50
2023-03-11T08:21:51.207Z,0.85
2023-03-11T08:24:18.476Z,0.68
2023-03-11T08:26:45.814Z,0.60
2023-03-11T08:29:13.098Z,1.88
2023-03-11T08:31:40.398Z,2.15
2023-03-11T08:34:10.211Z,1.73
2023-03-11T08:36:37.577Z,1.83
2023-03-11T08:39:05.063Z,1.38
2023-03-11T08:41:32.758Z,1.05
2023-03-11T08:44:00.256Z,6.65
2023-03-11T08:46:38.278Z,13.93
2023-03-11T08:49:06.732Z,3.97
2023-03-11T08:51:34.792Z,2.17
2023-03-11T08:54:02.940Z,2.75
2023-03-11T08:56:30.542Z,2.75
2023-03-11T08:58:57.931Z,2.47
2023-03-11T09:01:25.417Z,5.15
2023-03-11T09:03:52.992Z,8.70
2023-03-11T09:06:21.002Z,5.00
2023-03-11T09:08:48.799Z,4.15
2023-03-11T09:11:17.474Z,0.63
2023-03-11T09:13:44.778Z,0.30
2023-03-11T09:16:15.263Z,0.30
2023-03-11T09:18:43.023Z,0.52
2023-03-11T09:21:11.149Z,0.20
2023-03-11T09:23:41.055Z,0.22
2023-03-11T09:26:09.536Z,0.60
2023-03-11T09:28:36.709Z,0.65
2023-03-11T09:31:04.378Z,2.95
2023-03-11T09:33:31.717Z,3.65
2023-03-11T09:35:59.419Z,1.30
2023-03-11T09:38:26.719Z,0.30
2023-03-11T09:41:22.314Z,2.83
2023-03-11T09:44:08.152Z,2.53
2023-03-11T09:47:09.825Z,5.13
2023-03-11T09:50:08.690Z,1.70
2023-03-11T09:55:48.074Z,0.55
2023-03-11T09:58:39.801Z,0.20
2023-03-11T10:01:29.900Z,1.92
2023-03-11T10:04:13.819Z,0.45
2023-03-11T10:06:44.280Z,2.67
2023-03-11T10:09:38.907Z,0.60
2023-03-11T10:12:25.566Z,0.20
2023-03-11T10:15:29.154Z,0.20
2023-03-11T10:18:16.348Z,0.30
2023-03-11T10:21:09.741Z,0.20
2023-03-11T10:24:07.567Z,0.98
2023-03-11T10:26:49.409Z,0.82
2023-03-11T10:29:30.543Z,0.60
2023-03-11T10:32:15.314Z,0.45
2023-03-11T10:35:03.851Z,0.40
2023-03-11T10:37:49.133Z,0.60
2023-03-11T10:40:35.307Z,0.32
2023-03-11T10:43:34.523Z,3.13
2023-03-11T10:46:06.965Z,2.33
2023-03-11T10:48:34.370Z,1.85
2023-03-11T10:51:37.793Z,1.38
2023-03-11T10:54:05.307Z,1.08
2023-03-11T10:56:40.587Z,0.60
2023-03-11T10:59:49.168Z,2.15
2023-03-11T11:02:25.530Z,1.40
2023-03-11T11:05:35.155Z,2.00
2023-03-11T11:08:14.945Z,1.67
2023-03-11T11:11:23.584Z,1.25
2023-03-11T11:13:59.615Z,2.35
2023-03-11T11:16:28.509Z,2.67
2023-03-11T11:19:13.408Z,1.08
2023-03-11T11:21:42.631Z,2.33
2023-03-11T11:24:17.909Z,1.60
2023-03-11T11:27:11.179Z,0.95
2023-03-11T11:29:38.638Z,1.02
2023-03-11T11:32:18.605Z,3.00
2023-03-11T11:35:02.559Z,2.30
2023-03-11T11:37:36.895Z,0.98
2023-03-11T11:40:13.941Z,1.90
2023-03-11T11:42:57.114Z,0.98
2023-03-11T11:45:39.948Z,1.38
2023-03-11T11:48:50.894Z,1.75
2023-03-11T11:51:48.556Z,3.97
2023-03-11T11:54:27.604Z,1.88
2023-03-11T11:56:56.625Z,1.13
2023-03-11T11:59:25.230Z,1.33
2023-03-11T12:02:37.029Z,1.42
2023-03-11T12:05:30.346Z,2.33
2023-03-11T12:08:12.279Z,2.47
2023-03-11T12:11:02.684Z,1.83
2023-03-11T12:14:03.783Z,2.15
2023-03-11T12:17:03.661Z,2.22
2023-03-11T12:19:49.059Z,2.13
2023-03-11T12:22:27.108Z,2.47
2023-03-11T12:25:06.226Z,2.33
2023-03-11T12:30:31.210Z,2.20
2023-03-11T12:33:31.553Z,2.45
2023-03-11T12:35:59.948Z,2.40
2023-03-11T12:38:32.518Z,3.33
2023-03-11T12:41:01.823Z,2.97
2023-03-11T12:43:34.624Z,3.58
2023-03-11T12:46:04.717Z,2.13
2023-03-11T12:48:41.373Z,2.10
2023-03-11T12:51:33.622Z,2.80
2023-03-11T12:54:34.179Z,1.80
2023-03-11T12:57:20.570Z,2.30
2023-03-11T13:00:22.644Z,2.03
2023-03-11T13:03:22.838Z,1.50
2023-03-11T13:06:31.793Z,1.90
2023-03-11T13:09:00.275Z,1.73
2023-03-11T13:11:36.560Z,2.63
2023-03-11T13:14:35.276Z,3.85
2023-03-11T13:17:30.390Z,4.40
2023-03-11T13:19:59.056Z,3.60
2023-03-11T13:22:52.824Z,3.45
2023-03-11T13:25:33.071Z,3.55
2023-03-11T13:28:25.153Z,2.90
2023-03-11T13:31:23.937Z,1.38
2023-03-11T13:34:49.292Z,3.15
2023-03-11T13:37:19.414Z,1.83
2023-03-11T13:40:31.117Z,1.60
2023-03-11T13:43:04.582Z,1.00
2023-03-11T13:45:35.118Z,2.67
2023-03-11T13:48:19.404Z,2.63
2023-03-11T13:51:11.619Z,2.03
2023-03-11T13:54:04.183Z,1.77
2023-03-11T13:56:39.002Z,1.88
2023-03-11T13:59:34.416Z,1.52
2023-03-11T14:02:18.658Z,2.22
2023-03-11T14:04:57.545Z,2.53
2023-03-11T14:07:37.772Z,2.00
2023-03-11T14:10:11.386Z,3.25
2023-03-11T14:12:38.796Z,4.72
2023-03-11T14:15:12.576Z,4.03
2023-03-11T14:17:39.830Z,2.42
2023-03-11T14:20:16.714Z,1.40
2023-03-11T14:22:46.981Z,1.00
2023-03-11T14:25:27.425Z,1.45
2023-03-11T14:28:02.039Z,1.40
2023-03-11T14:30:33.385Z,1.45
2023-03-11T14:33:12.636Z,1.95
2023-03-11T14:35:40.015Z,8.20
2023-03-11T14:38:22.590Z,3.30
2023-03-11T14:41:00.069Z,4.68
2023-03-11T14:43:37.682Z,4.60
2023-03-11T14:46:06.414Z,4.78
2023-03-11T14:48:41.120Z,5.97
2023-03-11T14:51:27.092Z,3.60
2023-03-11T14:54:15.038Z,3.78
2023-03-11T14:56:50.534Z,3.63
2023-03-11T14:59:31.747Z,3.80
2023-03-11T15:02:22.533Z,4.05
2023-03-11T15:04:51.183Z,3.72
2023-03-11T15:07:20.321Z,5.00
2023-03-11T15:09:48.241Z,5.65
2023-03-11T15:12:40.449Z,4.88
2023-03-11T15:15:40.484Z,2.35
2023-03-11T15:18:29.398Z,4.10
2023-03-11T15:21:14.837Z,4.88
2023-03-11T15:23:59.466Z,2.58
2023-03-11T15:26:30.550Z,3.13
2023-03-11T15:29:11.363Z,2.78
2023-03-11T15:31:44.247Z,2.55
2023-03-11T15:34:24.696Z,2.47
2023-03-11T15:36:52.452Z,2.75
2023-03-11T15:39:31.791Z,4.30
2023-03-11T15:42:13.004Z,4.25
2023-03-11T15:45:01.754Z,2.42
2023-03-11T15:47:29.070Z,2.72
2023-03-11T15:49:56.531Z,2.40
2023-03-11T15:52:23.972Z,3.15
2023-03-11T15:54:55.887Z,2.33
2023-03-11T15:57:29.342Z,2.42
2023-03-11T15:59:59.540Z,2.50
2023-03-11T16:02:30.345Z,2.28
2023-03-11T16:04:58.830Z,1.75
2023-03-11T16:07:38.695Z,2.60
2023-03-11T16:10:09.876Z,2.75
2023-03-11T16:12:37.397Z,3.22
2023-03-11T16:15:06.007Z,3.47
2023-03-11T16:17:48.529Z,3.60
2023-03-11T16:20:20.684Z,2.70
2023-03-11T16:22:50.068Z,3.35
2023-03-11T16:27:56.124Z,4.55
2023-03-11T16:30:28.106Z,4.28
2023-03-11T16:32:56.085Z,4.38
2023-03-11T16:35:24.953Z,2.33
2023-03-11T16:37:54.070Z,3.20
2023-03-11T16:40:26.259Z,5.75
2023-03-11T16:43:05.530Z,9.48
2023-03-11T16:45:34.174Z,6.70
2023-03-11T16:48:02.932Z,4.63
2023-03-11T16:50:31.029Z,3.65
2023-03-11T16:52:58.890Z,1.60
2023-03-11T16:55:27.838Z,1.00
2023-03-11T16:57:56.925Z,1.35
2023-03-11T17:00:25.253Z,1.15
2023-03-11T17:02:52.458Z,1.40
2023-03-11T17:05:20.227Z,1.90
2023-03-11T17:07:47.764Z,1.25
2023-03-11T17:10:15.008Z,0.68
2023-03-11T17:12:42.290Z,1.42
2023-03-11T17:15:10.238Z,1.77
2023-03-11T17:17:37.695Z,0.77
2023-03-11T17:20:06.519Z,1.17
2023-03-11T17:22:34.022Z,3.88
2023-03-11T17:25:01.706Z,4.80
2023-03-11T17:27:31.974Z,5.28
2023-03-11T17:30:01.358Z,4.38
2023-03-11T17:34:56.593Z,2.45
2023-03-11T17:37:24.537Z,1.70
2023-03-11T17:39:52.032Z,2.92
2023-03-11T17:42:19.200Z,4.05
2023-03-11T17:44:51.674Z,3.83
2023-03-11T17:47:20.781Z,4.47
2023-03-11T17:49:48.810Z,4.50
2023-03-11T17:52:16.053Z,6.43
2023-03-11T17:54:44.208Z,6.70
2023-03-11T17:57:11.611Z,4.07
2023-03-11T17:59:38.963Z,6.88
2023-03-11T18:02:08.171Z,4.75
2023-03-11T18:04:38.234Z,4.95
2023-03-11T18:07:05.742Z,6.03
2023-03-11T18:09:33.080Z,3.72
2023-03-11T18:12:02.041Z,4.78
2023-03-11T18:14:29.294Z,3.13
2023-03-11T18:16:56.868Z,1.83
2023-03-11T18:19:24.325Z,1.63
2023-03-11T18:21:51.606Z,1.05
2023-03-11T18:24:18.888Z,5.85
2023-03-11T18:26:46.128Z,5.43
2023-03-11T18:29:13.419Z,3.28
2023-03-11T18:31:40.882Z,3.70
2023-03-11T18:34:12.902Z,2.95
2023-03-11T18:36:41.760Z,5.00
2023-03-11T18:39:12.069Z,4.22
2023-03-11T18:41:40.493Z,7.25
2023-03-11T18:44:08.033Z,4.15
2023-03-11T18:46:35.534Z,4.30
2023-03-11T18:49:03.900Z,5.68
2023-03-11T18:51:32.686Z,2.70
2023-03-11T18:54:01.560Z,4.65
2023-03-11T18:56:32.635Z,4.35
2023-03-11T18:59:00.437Z,4.70
2023-03-11T19:01:28.254Z,5.07
2023-03-11T19:03:58.974Z,7.80
2023-03-11T19:06:28.585Z,6.10
2023-03-11T19:11:25.237Z,11.90
2023-03-11T19:13:52.718Z,7.35
2023-03-11T19:16:23.625Z,7.00
2023-03-11T19:18:53.301Z,5.78
2023-03-11T19:21:21.411Z,5.40
2023-03-11T19:23:51.181Z,4.82
2023-03-11T19:26:18.733Z,8.20
2023-03-11T19:28:46.349Z,6.82
2023-03-11T19:31:14.399Z,4.18
2023-03-11T19:33:44.959Z,3.38
2023-03-11T19:36:12.793Z,6.30
2023-03-11T19:38:40.067Z,5.65
2023-03-11T19:41:13.677Z,5.35
2023-03-11T19:43:41.669Z,5.60
2023-03-11T19:46:12.559Z,7.57
2023-03-11T19:48:40.337Z,7.38
2023-03-11T19:51:07.817Z,4.60
2023-03-11T19:53:36.420Z,4.65
2023-03-11T19:56:04.320Z,4.33
2023-03-11T19:58:31.932Z,5.40
2023-03-11T20:01:01.466Z,5.07
2023-03-11T20:06:02.412Z,8.13
2023-03-11T20:08:29.832Z,2.45
2023-03-11T20:11:01.427Z,1.38
2023-03-11T20:13:29.684Z,0.55
2023-03-11T20:16:11.552Z,1.45
2023-03-11T20:18:39.378Z,0.90
2023-03-11T20:21:12.367Z,0.57
2023-03-11T20:23:40.324Z,0.68
2023-03-11T20:26:11.649Z,0.70
2023-03-11T20:28:39.626Z,0.75
2023-03-11T20:31:17.340Z,0.47
2023-03-11T20:33:45.441Z,1.40
2023-03-11T20:36:22.961Z,0.80
2023-03-11T20:38:53.032Z,0.70
2023-03-11T20:41:25.373Z,1.30
2023-03-11T20:43:55.477Z,0.52
2023-03-11T20:46:23.256Z,1.60
2023-03-11T20:48:50.690Z,1.08
2023-03-11T20:51:20.074Z,1.15
2023-03-11T20:53:48.403Z,1.20
2023-03-11T20:56:20.208Z,6.20
2023-03-11T20:58:50.337Z,4.50
2023-03-11T21:01:24.002Z,3.17
2023-03-11T21:03:58.226Z,5.25
2023-03-11T21:06:31.808Z,5.53
2023-03-11T21:09:02.409Z,1.63
2023-03-11T21:11:29.847Z,0.63
2023-03-11T21:13:57.175Z,0.40
2023-03-11T21:16:26.517Z,1.30
2023-03-11T21:18:54.367Z,1.17
2023-03-11T21:21:22.025Z,1.67
2023-03-11T21:23:50.022Z,3.53
2023-03-11T21:26:17.890Z,3.15
2023-03-11T21:28:45.890Z,1.67
2023-03-11T21:31:18.150Z,2.67
2023-03-11T21:33:45.975Z,3.00
2023-03-11T21:36:15.891Z,1.48
2023-03-11T21:38:43.333Z,0.98
2023-03-11T21:41:17.464Z,1.60
2023-03-11T21:43:46.447Z,1.10
2023-03-11T21:46:18.883Z,1.63
2023-03-11T21:48:47.421Z,1.60
2023-03-11T21:51:16.580Z,3.13
2023-03-11T21:53:44.326Z,1.38
2023-03-11T21:56:12.930Z,3.80
2023-03-11T21:58:41.498Z,2.57
2023-03-11T22:01:10.340Z,2.92
2023-03-11T22:03:38.185Z,3.38
2023-03-11T22:06:09.611Z,3.15
2023-03-11T22:08:37.764Z,3.17
2023-03-11T22:11:13.498Z,2.00
2023-03-11T22:13:41.048Z,1.77
2023-03-11T22:16:08.484Z,1.13
2023-03-11T22:18:36.016Z,1.20
2023-03-11T22:21:04.323Z,1.83
2023-03-11T22:23:32.954Z,7.32
2023-03-11T22:26:00.415Z,1.38
2023-03-11T22:28:27.811Z,3.08
2023-03-11T22:30:55.133Z,2.85
2023-03-11T22:33:22.497Z,0.85
2023-03-11T22:35:55.688Z,0.93
2023-03-11T22:38:23.292Z,0.77
2023-03-11T22:40:51.360Z,1.00
2023-03-11T22:43:18.685Z,1.30
2023-03-11T22:45:46.154Z,0.77
2023-03-11T22:48:13.826Z,1.15
2023-03-11T22:50:44.163Z,0.80
2023-03-11T22:53:12.554Z,1.42
2023-03-11T22:55:42.342Z,4.43
2023-03-11T22:58:11.409Z,2.42
2023-03-11T23:00:39.377Z,1.30
2023-03-11T23:03:06.823Z,1.45
2023-03-11T23:05:41.038Z,1.05
2023-03-11T23:08:11.512Z,1.33
2023-03-11T23:10:44.185Z,1.02
2023-03-11T23:13:11.989Z,0.68
2023-03-11T23:15:44.861Z,2.45
2023-03-11T23:18:14.967Z,1.08
2023-03-11T23:20:43.498Z,0.80
2023-03-11T23:23:11.573Z,1.27
2023-03-11T23:25:40.345Z,1.48
2023-03-11T23:28:08.258Z,1.20
2023-03-11T23:30:35.823Z,1.45
2023-03-11T23:33:03.445Z,1.35
2023-03-11T23:35:32.076Z,0.90
2023-03-11T23:37:59.613Z,1.27
2023-03-11T23:40:27.397Z,2.00
2023-03-11T23:42:54.798Z,2.55
2023-03-11T23:45:22.158Z,1.45
2023-03-11T23:47:49.711Z,1.67
2023-03-11T23:50:17.131Z,1.90
2023-03-11T23:52:44.352Z,2.00
2023-03-11T23:55:12.109Z,2.35
2023-03-11T23:57:39.380Z,1.45
